Time;durP1;ratioP1;P1;durP2;ratioP2;P2;SDS_P1;SDS_P2;PMS_P1;PMS_P2;Temp;Humidity;BMP_temperature;BMP_pressure;BME280_temperature;BME280_humidity;BME280_pressure;Samples;Min_cycle;Max_cycle;Signal;HPM_P1;HPM_P2
2022/05/31 04:30:10;;;;;;;;;;;;;;;14.79;100.00;98241.88;5986392;23;19986;31
2022/05/31 04:32:56;;;;;;;;;;;;;;;14.82;100.00;98243.03;4846022;29;19953;-70
2022/05/31 04:35:34;;;;;;;;;;;;;;;14.83;100.00;98245.44;4830994;29;19956;-70
2022/05/31 04:38:02;;;;;;;;;;;;;;;14.89;100.00;98252.16;4846407;29;19951;-71
2022/05/31 04:40:44;;;;;;;;;;;;;;;14.91;100.00;98240.47;4832915;29;19950;-71
2022/05/31 04:43:34;;;;;;;;;;;;;;;14.92;100.00;98242.84;4842023;29;20341;-73
2022/05/31 04:46:18;;;;;;;;;;;;;;;14.91;100.00;98234.84;4846687;29;19977;-71
2022/05/31 04:49:18;;;;;;;;;;;;;;;14.92;100.00;98242.84;4846778;29;19949;-71
2022/05/31 04:51:46;;;;;;;;;;;;;;;15.01;100.00;98257.19;4830791;29;19948;-71
2022/05/31 04:54:23;;;;;;;;;;;;;;;15.13;100.00;98259.41;4822305;29;19955;-71
2022/05/31 04:57:28;;;;;;;;;;;;;;;15.26;100.00;98258.78;4837428;29;19960;-71
2022/05/31 04:59:56;;;;;;;;;;;;;;;15.33;100.00;98255.84;4845570;29;19952;-71
2022/05/31 05:02:23;;;;;;;;;;;;;;;15.41;100.00;98254.44;4830444;29;20341;-71
2022/05/31 05:04:59;;;;;;;;;;;;;;;15.45;100.00;98258.06;4847022;29;19957;-71
2022/05/31 05:07:45;;;;;;;;;;;;;;;15.48;100.00;98260.00;4846771;29;19968;-72
2022/05/31 05:10:12;;;;;;;;;;;;;;;15.49;100.00;98259.56;4829236;29;20335;-71
2022/05/31 05:13:00;;;;;;;;;;;;;;;15.50;100.00;98255.50;4846203;29;19957;-71
2022/05/31 05:15:45;;;;;;;;;;;;;;;15.52;100.00;98266.38;4846543;29;20252;-71
2022/05/31 05:18:13;;;;;;;;;;;;;;;15.58;100.00;98271.06;4830706;29;20364;-71
2022/05/31 05:20:44;;;;;;;;;;;;;;;15.63;100.00;98278.22;4831010;29;19979;-71
2022/05/31 05:23:11;;;;;;;;;;;;;;;15.67;100.00;98273.31;4845708;29;19956;-71
2022/05/31 05:25:41;;;;;;;;;;;;;;;15.69;100.00;98279.31;4830076;29;19948;-71
2022/05/31 05:31:26;;;;;;;;;;;;;;;15.71;100.00;98288.94;4839092;29;19969;-72
2022/05/31 05:34:14;;;;;;;;;;;;;;;15.70;100.00;98295.78;4796859;29;20238;-71
2022/05/31 05:36:53;;;;;;;;;;;;;;;15.66;100.00;98292.25;4836765;29;20363;-71
2022/05/31 05:39:21;;;;;;;;;;;;;;;15.64;100.00;98294.72;4844737;29;19952;-71
2022/05/31 05:42:00;;;;;;;;;;;;;;;15.65;100.00;98289.84;4841958;29;19953;-72
2022/05/31 05:44:43;;;;;;;;;;;;;;;15.67;100.00;98299.47;4845165;29;19950;-72
2022/05/31 05:47:15;;;;;;;;;;;;;;;15.72;100.00;98304.63;4839238;29;19973;-71
2022/05/31 05:49:43;;;;;;;;;;;;;;;15.74;100.00;98298.56;4840194;29;19952;-71
2022/05/31 05:52:29;;;;;;;;;;;;;;;15.78;100.00;98304.91;4840157;29;20341;-71
2022/05/31 05:55:15;;;;;;;;;;;;;;;15.80;100.00;98305.28;4841846;29;19947;-72
2022/05/31 05:58:02;;;;;;;;;;;;;;;15.83;100.00;98295.97;4838849;29;19958;-71
2022/05/31 06:00:50;;;;;;;;;;;;;;;15.85;100.00;98295.50;4840647;29;20250;-71
2022/05/31 06:03:23;;;;;;;;;;;;;;;15.84;100.00;98294.75;4850456;29;20034;-71
2022/05/31 06:05:59;;;;;;;;;;;;;;;15.90;100.00;98301.44;4840492;29;20270;-71
2022/05/31 06:08:29;;;;;;;;;;;;;;;15.91;100.00;98300.25;4823213;29;19959;-72
2022/05/31 06:11:06;;;;;;;;;;;;;;;15.95;100.00;98300.94;4852443;29;20214;-72
2022/05/31 06:13:49;;;;;;;;;;;;;;;15.97;100.00;98306.19;4830100;29;19951;-72
2022/05/31 06:16:18;;;;;;;;;;;;;;;15.98;100.00;98308.56;4839746;29;19971;-71
2022/05/31 06:18:47;;;;;;;;;;;;;;;16.03;100.00;98310.88;4827099;29;19953;-71
2022/05/31 06:21:18;;;;;;;;;;;;;;;16.04;100.00;98311.66;4828615;29;19956;-71
2022/05/31 06:23:49;;;;;;;;;;;;;;;16.06;100.00;98310.00;4829426;29;20379;-71
2022/05/31 06:26:17;;;;;;;;;;;;;;;16.08;100.00;98309.56;4843242;29;19952;-71
2022/05/31 06:29:05;;;;;;;;;;;;;;;16.08;100.00;98304.72;4838108;29;20535;-71
2022/05/31 06:31:32;;;;;;;;;;;;;;;16.14;100.00;98302.19;4835705;29;20037;-71
2022/05/31 06:34:02;;;;;;;;;;;;;;;16.18;100.00;98317.00;4838061;29;20037;-71
2022/05/31 06:36:49;;;;;;;;;;;;;;;16.26;100.00;98319.22;4838242;29;20017;-71
2022/05/31 06:39:17;;;;;;;;;;;;;;;16.32;100.00;98319.53;4823916;29;19952;-72
2022/05/31 06:41:45;;;;;;;;;;;;;;;16.39;100.00;98314.53;4844515;29;19955;-72
2022/05/31 06:44:33;;;;;;;;;;;;;;;16.48;100.00;98321.63;4841992;29;19955;-72
2022/05/31 06:47:19;;;;;;;;;;;;;;;16.58;100.00;98314.97;4841574;29;19992;-72
2022/05/31 06:50:13;;;;;;;;;;;;;;;16.67;100.00;98320.81;4824679;29;19958;-72
2022/05/31 06:59:37;;;;;;;;;;;;;;;16.99;100.00;98335.00;4828936;29;19949;-72
2022/05/31 07:02:05;;;;;;;;;;;;;;;17.03;100.00;98332.88;4855947;29;19947;-72
2022/05/31 07:04:36;;;;;;;;;;;;;;;17.07;100.00;98334.38;4826916;29;20379;-72
2022/05/31 07:07:05;;;;;;;;;;;;;;;17.15;100.00;98335.00;4824754;29;19965;-72
2022/05/31 07:09:51;;;;;;;;;;;;;;;17.17;100.00;98332.50;4848028;29;19949;-72
2022/05/31 07:12:27;;;;;;;;;;;;;;;17.31;100.00;98334.22;4839764;29;19951;-72
2022/05/31 07:15:13;;;;;;;;;;;;;;;17.45;100.00;98342.31;4845317;29;19954;-71
2022/05/31 07:18:09;;;;;;;;;;;;;;;17.48;100.00;98339.38;4842532;29;19947;-72
2022/05/31 07:20:36;;;;;;;;;;;;;;;17.53;100.00;98338.13;4831128;29;19953;-72
2022/05/31 07:23:04;;;;;;;;;;;;;;;17.56;100.00;98340.84;4844068;29;19949;-72
2022/05/31 07:25:34;;;;;;;;;;;;;;;17.61;100.00;98331.00;4846956;29;20245;-72
2022/05/31 07:28:09;;;;;;;;;;;;;;;17.65;100.00;98335.34;4846987;29;19968;-72
2022/05/31 07:30:38;;;;;;;;;;;;;;;17.73;100.00;98345.22;4862229;29;19974;-72
2022/05/31 07:33:12;;;;;;;;;;;;;;;17.80;100.00;98340.63;4846621;29;19949;-72
2022/05/31 07:36:02;;;;;;;;;;;;;;;17.82;100.00;98343.81;4831453;29;19957;-72
2022/05/31 07:38:30;;;;;;;;;;;;;;;17.86;100.00;98350.16;4831107;29;19949;-72
2022/05/31 07:40:59;;;;;;;;;;;;;;;17.93;100.00;98350.75;4846750;29;20247;-72
2022/05/31 07:43:26;;;;;;;;;;;;;;;18.04;100.00;98347.66;4846240;29;19951;-72
2022/05/31 07:46:07;;;;;;;;;;;;;;;18.15;100.00;98354.59;4860602;29;19956;-72
2022/05/31 07:48:35;;;;;;;;;;;;;;;18.26;100.00;98346.59;4846441;29;19966;-72
2022/05/31 07:51:20;;;;;;;;;;;;;;;18.28;100.00;98352.59;4824529;29;20342;-72
2022/05/31 07:54:23;;;;;;;;;;;;;;;18.35;100.00;98357.25;4805057;29;20029;-72
2022/05/31 07:58:30;;;;;;;;;;;;;;;18.49;100.00;98365.38;4837928;29;20336;-72
2022/05/31 08:00:15;;;;;;;;;;;;;;;18.66;100.00;98351.91;4847215;29;19957;-72
2022/05/31 08:02:45;;;;;;;;;;;;;;;18.80;100.00;98352.31;4846433;29;19954;-72
2022/05/31 08:05:13;;;;;;;;;;;;;;;19.10;100.00;98348.09;4847405;29;19954;-72
2022/05/31 08:07:40;;;;;;;;;;;;;;;19.27;100.00;98343.91;4846762;29;19966;-72
2022/05/31 08:10:08;;;;;;;;;;;;;;;19.30;100.00;98350.69;4847471;29;20246;-72
2022/05/31 08:12:35;;;;;;;;;;;;;;;19.32;100.00;98339.69;4847452;29;19953;-72
2022/05/31 08:15:04;;;;;;;;;;;;;;;19.55;100.00;98350.69;4847526;29;19953;-72
2022/05/31 08:17:31;;;;;;;;;;;;;;;19.76;100.00;98343.53;4846487;29;19959;-72
2022/05/31 08:19:58;;;;;;;;;;;;;;;19.84;100.00;98339.97;4847274;29;19978;-72
2022/05/31 08:22:25;;;;;;;;;;;;;;;20.14;100.00;98342.13;4847126;29;19949;-72
2022/05/31 08:24:53;;;;;;;;;;;;;;;20.29;100.00;98337.53;4846446;29;20377;-72
2022/05/31 08:27:20;;;;;;;;;;;;;;;20.49;100.00;98336.41;4846710;29;19970;-72
2022/05/31 08:29:47;;;;;;;;;;;;;;;20.36;100.00;98338.53;4846661;29;19954;-71
2022/05/31 08:32:15;;;;;;;;;;;;;;;20.17;100.00;98340.41;4847428;29;19980;-71
2022/05/31 08:34:42;;;;;;;;;;;;;;;20.21;100.00;98333.34;4846680;29;19953;-72
2022/05/31 08:37:09;;;;;;;;;;;;;;;20.14;100.00;98335.66;4846691;29;19957;-72
2022/05/31 08:39:36;;;;;;;;;;;;;;;20.31;100.00;98334.22;4846620;29;19950;-72
2022/05/31 08:42:06;;;;;;;;;;;;;;;20.37;100.00;98332.38;4846372;29;19950;-72
2022/05/31 08:44:34;;;;;;;;;;;;;;;20.55;100.00;98332.50;4846949;29;19950;-72
2022/05/31 08:47:03;;;;;;;;;;;;;;;20.62;100.00;98328.59;4846509;29;19960;-72
2022/05/31 08:51:52;;;;;;;;;;;;;;;20.71;100.00;98322.97;4846802;29;19954;-72
2022/05/31 08:52:23;;;;;;;;;;;;;;;20.71;100.00;98322.97;4845671;29;19950;-72
2022/05/31 08:57:46;;;;;;;;;;;;;;;21.04;100.00;98323.28;4845281;29;20383;-72
2022/05/31 09:00:19;;;;;;;;;;;;;;;21.00;100.00;98326.28;4846262;29;19955;-72
2022/05/31 09:02:52;;;;;;;;;;;;;;;21.03;100.00;98328.16;4846065;29;19974;-72
2022/05/31 09:05:23;;;;;;;;;;;;;;;20.84;100.00;98324.44;4846222;29;19949;-72
2022/05/31 09:07:53;;;;;;;;;;;;;;;20.96;100.00;98329.25;4846086;29;20281;-72
2022/05/31 09:10:26;;;;;;;;;;;;;;;20.93;100.00;98329.41;4844763;29;19951;-72
2022/05/31 09:12:57;;;;;;;;;;;;;;;21.18;100.00;98331.25;4844443;29;19952;-72
2022/05/31 09:15:33;;;;;;;;;;;;;;;21.17;100.00;98335.38;4846092;29;19951;-72
2022/05/31 09:18:05;;;;;;;;;;;;;;;20.91;100.00;98344.06;4845762;29;19967;-72
2022/05/31 09:20:38;;;;;;;;;;;;;;;20.99;100.00;98344.59;4845669;29;20429;-72
2022/05/31 09:23:05;;;;;;;;;;;;;;;20.85;100.00;98340.25;4845612;29;19950;-72
2022/05/31 09:25:37;;;;;;;;;;;;;;;20.38;100.00;98339.66;4845647;29;19950;-72
2022/05/31 09:28:06;;;;;;;;;;;;;;;20.43;100.00;98333.38;4845846;29;19969;-72
2022/05/31 09:30:45;;;;;;;;;;;;;;;20.51;100.00;98337.53;4845766;29;19977;-72
2022/05/31 09:33:12;;;;;;;;;;;;;;;20.51;100.00;98331.84;4844917;29;19947;-72
2022/05/31 09:35:40;;;;;;;;;;;;;;;20.41;100.00;98326.56;4828049;29;20219;-72
2022/05/31 09:38:26;;;;;;;;;;;;;;;20.56;100.00;98327.63;4844669;29;20261;-72
2022/05/31 09:41:06;;;;;;;;;;;;;;;20.73;100.00;98335.47;4845943;29;19950;-72
2022/05/31 09:43:43;;;;;;;;;;;;;;;20.85;100.00;98328.09;4835915;29;19947;-72
2022/05/31 09:46:19;;;;;;;;;;;;;;;20.68;100.00;98326.75;4845969;29;19949;-72
2022/05/31 09:48:50;;;;;;;;;;;;;;;20.60;100.00;98319.75;4845013;29;19964;-71
2022/05/31 09:51:36;;;;;;;;;;;;;;;20.61;100.00;98315.66;4845151;29;19950;-70
2022/05/31 09:57:13;;;;;;;;;;;;;;;20.63;100.00;98315.97;4844974;29;19952;-70
2022/05/31 10:00:13;;;;;;;;;;;;;;;20.77;100.00;98321.09;4845889;29;19953;-70
2022/05/31 10:03:12;;;;;;;;;;;;;;;20.71;100.00;98325.81;4845138;29;19950;-70
2022/05/31 10:05:41;;;;;;;;;;;;;;;20.89;100.00;98325.91;4843803;29;19948;-70
2022/05/31 10:08:28;;;;;;;;;;;;;;;20.89;100.00;98320.22;4845162;29;20368;-70
2022/05/31 10:10:56;;;;;;;;;;;;;;;21.01;100.00;98324.19;4845045;29;19951;-70
2022/05/31 10:13:43;;;;;;;;;;;;;;;20.92;100.00;98319.28;4846803;29;19978;-70
2022/05/31 10:16:13;;;;;;;;;;;;;;;20.95;100.00;98315.50;4845167;29;19977;-70
2022/05/31 10:18:47;;;;;;;;;;;;;;;20.74;100.00;98319.19;4844695;29;19961;-70
2022/05/31 10:21:26;;;;;;;;;;;;;;;21.00;100.00;98316.94;4845110;29;20371;-70
2022/05/31 10:23:53;;;;;;;;;;;;;;;20.90;100.00;98304.75;4828281;29;19949;-70
2022/05/31 10:26:40;;;;;;;;;;;;;;;21.21;100.00;98319.75;4846036;29;19950;-70
2022/05/31 10:29:24;;;;;;;;;;;;;;;21.03;100.00;98313.94;4847200;29;19969;-70
2022/05/31 10:32:24;;;;;;;;;;;;;;;20.88;100.00;98315.81;4847939;29;19969;-70
2022/05/31 10:35:05;;;;;;;;;;;;;;;21.08;100.00;98313.38;4835700;29;19952;-70
2022/05/31 10:37:32;;;;;;;;;;;;;;;21.32;100.00;98322.94;4848105;29;19955;-70
2022/05/31 10:40:06;;;;;;;;;;;;;;;21.74;100.00;98323.19;4845045;29;20251;-70
2022/05/31 10:42:34;;;;;;;;;;;;;;;21.68;100.00;98322.25;4849290;29;19949;-71
2022/05/31 10:45:04;;;;;;;;;;;;;;;21.48;100.00;98319.84;4844850;29;19960;-71
2022/05/31 10:47:31;;;;;;;;;;;;;;;21.34;100.00;98319.63;4846881;29;19949;-71
2022/05/31 10:49:58;;;;;;;;;;;;;;;21.30;100.00;98316.91;4844688;29;20258;-71
2022/05/31 10:52:32;;;;;;;;;;;;;;;21.10;100.00;98313.72;4845986;29;20249;-71
2022/05/31 10:55:06;;;;;;;;;;;;;;;21.12;100.00;98319.72;4843721;29;19951;-71
2022/05/31 10:57:52;;;;;;;;;;;;;;;21.14;100.00;98313.56;4843459;29;19949;-71
2022/05/31 11:00:42;;;;;;;;;;;;;;;20.95;100.00;98313.47;4844349;29;19950;-71
2022/05/31 11:03:19;;;;;;;;;;;;;;;20.86;100.00;98312.59;4834660;29;20340;-70
2022/05/31 11:05:46;;;;;;;;;;;;;;;20.72;100.00;98311.13;4842550;29;19952;-71
2022/05/31 11:11:30;;;;;;;;;;;;;;;20.79;100.00;98304.38;4846511;29;19980;-71
2022/05/31 11:13:59;;;;;;;;;;;;;;;20.91;100.00;98309.97;4847787;29;20281;-71
2022/05/31 11:16:32;;;;;;;;;;;;;;;20.79;100.00;98305.16;4848494;29;20383;-71
2022/05/31 11:19:14;;;;;;;;;;;;;;;20.88;100.00;98305.19;4847622;29;19956;-71
2022/05/31 11:22:00;;;;;;;;;;;;;;;20.95;100.00;98313.47;4848315;29;19956;-71
2022/05/31 11:24:46;;;;;;;;;;;;;;;20.96;100.00;98315.03;4848261;29;19949;-71
2022/05/31 11:27:30;;;;;;;;;;;;;;;21.05;100.00;98308.63;4831396;29;19950;-71
2022/05/31 11:30:07;;;;;;;;;;;;;;;21.28;100.00;98315.81;4847310;29;19965;-71
2022/05/31 11:32:34;;;;;;;;;;;;;;;21.30;100.00;98319.00;4847870;29;19977;-71
2022/05/31 11:35:20;;;;;;;;;;;;;;;21.30;100.00;98307.63;4846672;29;19960;-71
2022/05/31 11:38:01;;;;;;;;;;;;;;;21.15;100.00;98309.47;4847550;29;20252;-71
2022/05/31 11:40:36;;;;;;;;;;;;;;;21.14;100.00;98305.81;4847305;29;19982;-71
2022/05/31 11:43:04;;;;;;;;;;;;;;;21.20;100.00;98309.63;4847762;29;19945;-70
2022/05/31 11:45:41;;;;;;;;;;;;;;;21.06;100.00;98306.56;4846578;29;19948;-71
2022/05/31 11:48:17;;;;;;;;;;;;;;;21.06;100.00;98300.88;4847744;29;19949;-71
2022/05/31 11:51:03;;;;;;;;;;;;;;;21.12;100.00;98302.66;4846967;29;19982;-71
2022/05/31 11:53:48;;;;;;;;;;;;;;;21.17;100.00;98306.94;4847740;29;19951;-71
2022/05/31 11:56:15;;;;;;;;;;;;;;;21.16;100.00;98293.97;4847811;29;19981;-71
2022/05/31 11:58:48;;;;;;;;;;;;;;;21.16;100.00;98288.28;4846927;29;19963;-71
2022/05/31 12:01:34;;;;;;;;;;;;;;;21.13;100.00;98287.16;4865980;29;20029;-71
2022/05/31 12:04:03;;;;;;;;;;;;;;;21.07;100.00;98286.22;4866011;29;19958;-71
2022/05/31 12:06:49;;;;;;;;;;;;;;;20.96;100.00;98280.13;4847395;29;20332;-71
2022/05/31 12:09:30;;;;;;;;;;;;;;;20.99;100.00;98282.03;4845533;29;19969;-70
2022/05/31 12:12:01;;;;;;;;;;;;;;;21.04;100.00;98286.31;4842901;29;19959;-72
2022/05/31 12:14:30;;;;;;;;;;;;;;;21.00;100.00;98288.53;4845915;29;19955;-72
2022/05/31 12:16:57;;;;;;;;;;;;;;;20.95;100.00;98285.03;4846242;29;19956;-72
2022/05/31 12:19:30;;;;;;;;;;;;;;;20.98;100.00;98288.19;4846331;29;20373;-72
2022/05/31 12:22:13;;;;;;;;;;;;;;;20.90;100.00;98284.84;4845477;29;19956;-72
2022/05/31 12:24:45;;;;;;;;;;;;;;;20.85;100.00;98294.78;4845427;29;19951;-71
2022/05/31 12:27:22;;;;;;;;;;;;;;;20.89;100.00;98295.41;4846532;29;19954;-71
2022/05/31 12:30:07;;;;;;;;;;;;;;;20.89;100.00;98284.06;4846166;29;20355;-71
2022/05/31 12:32:37;;;;;;;;;;;;;;;20.85;100.00;98279.78;4840469;29;20004;-71
2022/05/31 12:35:06;;;;;;;;;;;;;;;20.90;100.00;98282.00;4845596;29;19956;-72
2022/05/31 12:37:52;;;;;;;;;;;;;;;20.91;100.00;98281.53;4842940;29;19955;-72
2022/05/31 12:40:22;;;;;;;;;;;;;;;20.82;100.00;98275.03;4846565;29;20083;-71
2022/05/31 12:42:49;;;;;;;;;;;;;;;20.87;100.00;98278.06;4848681;29;20371;-70
2022/05/31 12:45:19;;;;;;;;;;;;;;;20.92;100.00;98276.66;4845367;29;19950;-70
2022/05/31 12:47:57;;;;;;;;;;;;;;;20.96;100.00;98277.28;4846200;29;20238;-68
2022/05/31 12:50:43;;;;;;;;;;;;;;;21.07;100.00;98277.69;4846027;29;20267;-70
2022/05/31 12:53:23;;;;;;;;;;;;;;;21.06;100.00;98278.94;4844188;29;19959;-71
2022/05/31 12:55:50;;;;;;;;;;;;;;;21.06;100.00;98275.28;4846021;29;19956;-71
2022/05/31 12:58:27;;;;;;;;;;;;;;;21.02;100.00;98272.56;4846031;29;19958;-70
2022/05/31 13:00:56;;;;;;;;;;;;;;;21.03;100.00;98270.53;4846090;29;19959;-70
2022/05/31 13:03:33;;;;;;;;;;;;;;;21.11;100.00;98266.94;4846131;29;19961;-70
2022/05/31 13:06:00;;;;;;;;;;;;;;;21.23;100.00;98280.25;4857279;29;19955;-70
2022/05/31 13:08:39;;;;;;;;;;;;;;;21.15;100.00;98267.56;4844663;29;19950;-70
2022/05/31 13:19:35;;;;;;;;;;;;;;;21.10;100.00;98254.00;4836339;29;19951;-70
2022/05/31 13:22:06;;;;;;;;;;;;;;;21.11;100.00;98255.56;4840772;29;19952;-71
2022/05/31 13:24:37;;;;;;;;;;;;;;;21.15;100.00;98259.03;4841889;29;19963;-70
2022/05/31 13:27:07;;;;;;;;;;;;;;;21.19;100.00;98245.50;4843958;29;19951;-70
2022/05/31 13:29:34;;;;;;;;;;;;;;;21.31;100.00;98246.59;4844668;29;20344;-70
2022/05/31 13:32:02;;;;;;;;;;;;;;;21.30;100.00;98242.97;4845011;29;20398;-70
2022/05/31 13:34:34;;;;;;;;;;;;;;;21.37;100.00;98236.22;4844202;29;20384;-70
2022/05/31 13:37:03;;;;;;;;;;;;;;;21.51;100.00;98239.22;4842511;29;20384;-70
2022/05/31 13:39:38;;;;;;;;;;;;;;;21.68;100.00;98236.84;4844282;29;19964;-70
2022/05/31 13:42:06;;;;;;;;;;;;;;;21.82;100.00;98235.41;4843909;29;19949;-69
2022/05/31 13:44:38;;;;;;;;;;;;;;;21.79;100.00;98242.09;4844943;29;19954;-69
2022/05/31 13:47:08;;;;;;;;;;;;;;;21.86;100.00;98236.88;4844128;29;19983;-70
2022/05/31 13:49:35;;;;;;;;;;;;;;;21.84;100.00;98235.72;4844467;29;19966;-70
2022/05/31 13:52:04;;;;;;;;;;;;;;;21.95;100.00;98231.19;4844439;29;19953;-70
2022/05/31 13:54:39;;;;;;;;;;;;;;;21.87;100.00;98227.06;4844959;29;20332;-70
2022/05/31 13:57:06;;;;;;;;;;;;;;;21.86;100.00;98230.41;4845672;29;19949;-69
2022/05/31 13:59:40;;;;;;;;;;;;;;;21.91;100.00;98232.63;4844892;29;19959;-70
2022/05/31 14:02:13;;;;;;;;;;;;;;;21.66;100.00;98230.84;4844300;29;19955;-70
2022/05/31 14:04:41;;;;;;;;;;;;;;;21.66;100.00;98221.53;4845505;29;19958;-71
2022/05/31 14:07:14;;;;;;;;;;;;;;;21.79;100.00;98220.09;4844305;29;20251;-71
2022/05/31 14:09:43;;;;;;;;;;;;;;;21.78;100.00;98226.25;4845700;29;19970;-70
2022/05/31 14:12:10;;;;;;;;;;;;;;;;;;4844056;29;19956;-70
2022/05/31 14:14:45;;;;;;;;;;;;;;;22.10;100.00;98211.41;4843792;29;19957;-70
2022/05/31 14:17:38;;;;;;;;;;;;;;;22.25;100.00;98212.31;4844893;29;20524;-70
2022/05/31 14:20:25;;;;;;;;;;;;;;;22.23;100.00;98206.28;4832121;29;19955;-69
2022/05/31 14:22:57;;;;;;;;;;;;;;;22.03;100.00;98212.50;4840540;29;19954;-71
2022/05/31 14:25:25;;;;;;;;;;;;;;;21.92;100.00;98222.78;4843174;29;19956;-70
2022/05/31 14:27:52;;;;;;;;;;;;;;;21.81;100.00;98205.41;4846243;29;19955;-69
2022/05/31 14:30:38;;;;;;;;;;;;;;;21.80;100.00;98215.19;4845358;29;19966;-70
2022/05/31 14:33:07;;;;;;;;;;;;;;;21.63;100.00;98203.34;4844760;29;19951;-70
2022/05/31 14:35:36;;;;;;;;;;;;;;;21.63;100.00;98197.66;4845302;29;19950;-69
2022/05/31 14:38:05;;;;;;;;;;;;;;;21.57;100.00;98191.78;4842254;29;19960;-70
2022/05/31 14:40:37;;;;;;;;;;;;;;;21.57;100.00;98194.63;4841573;29;19957;-69
2022/05/31 14:43:06;;;;;;;;;;;;;;;21.45;100.00;98177.72;4844303;29;19955;-70
2022/05/31 14:45:47;;;;;;;;;;;;;;;21.51;100.00;98190.84;4843411;29;19953;-71
2022/05/31 14:48:33;;;;;;;;;;;;;;;21.45;100.00;98195.59;4843816;29;20374;-71
2022/05/31 14:51:01;;;;;;;;;;;;;;;21.47;100.00;98193.03;4843876;29;19970;-71
2022/05/31 14:53:36;;;;;;;;;;;;;;;21.48;100.00;98188.94;4844555;29;19958;-70
2022/05/31 14:56:03;;;;;;;;;;;;;;;21.42;100.00;98182.28;4844253;29;20026;-69
2022/05/31 14:58:43;;;;;;;;;;;;;;;21.42;100.00;98198.59;4844990;29;19953;-70
2022/05/31 15:01:15;;;;;;;;;;;;;;;21.53;100.00;98191.16;4841921;29;20341;-70
2022/05/31 15:04:03;;;;;;;;;;;;;;;21.57;100.00;98191.00;4845125;29;20365;-70
2022/05/31 15:06:37;;;;;;;;;;;;;;;21.53;100.00;98196.84;4844881;29;19955;-70
2022/05/31 15:09:07;;;;;;;;;;;;;;;21.45;100.00;98191.94;4844175;29;19959;-70
2022/05/31 15:19:54;;;;;;;;;;;;;;;21.34;100.00;98169.66;4847572;29;20349;-70
2022/05/31 15:22:23;;;;;;;;;;;;;;;21.32;100.00;98174.25;4845558;29;20349;-71
2022/05/31 15:24:51;;;;;;;;;;;;;;;21.33;100.00;98173.75;4845792;29;19956;-70
2022/05/31 15:27:21;;;;;;;;;;;;;;;21.37;100.00;98159.41;4848984;29;19962;-70
2022/05/31 15:29:50;;;;;;;;;;;;;;;21.35;100.00;98157.00;4846315;29;19959;-70
2022/05/31 15:32:18;;;;;;;;;;;;;;;21.42;100.00;98156.69;4856208;29;19977;-71
2022/05/31 15:34:45;;;;;;;;;;;;;;;21.47;100.00;98161.75;4846716;29;19954;-70
2022/05/31 15:37:16;;;;;;;;;;;;;;;21.47;100.00;98161.75;4847741;29;19963;-70
2022/05/31 15:39:45;;;;;;;;;;;;;;;21.50;100.00;98165.69;4842982;29;20337;-70
2022/05/31 15:42:15;;;;;;;;;;;;;;;21.48;100.00;98171.88;4829091;29;19958;-70
2022/05/31 15:44:43;;;;;;;;;;;;;;;21.52;100.00;98160.31;4839872;29;20245;-70
2022/05/31 15:47:11;;;;;;;;;;;;;;;21.56;100.00;98164.63;4848450;29;19957;-71
2022/05/31 15:49:39;;;;;;;;;;;;;;;21.53;100.00;98161.91;4847265;29;19948;-71
2022/05/31 15:52:18;;;;;;;;;;;;;;;21.56;100.00;98161.78;4846659;29;19971;-70
2022/05/31 15:54:50;;;;;;;;;;;;;;;21.58;100.00;98155.59;4847511;29;19956;-70
2022/05/31 15:57:18;;;;;;;;;;;;;;;21.73;100.00;98144.34;4848218;29;20008;-70
2022/05/31 15:59:45;;;;;;;;;;;;;;;21.70;100.00;98137.56;4846920;29;19960;-71
2022/05/31 16:02:12;;;;;;;;;;;;;;;21.64;100.00;98145.13;4848090;29;20246;-71
2022/05/31 16:04:40;;;;;;;;;;;;;;;21.57;100.00;98143.41;4846999;29;19960;-75
2022/05/31 16:07:13;;;;;;;;;;;;;;;21.56;100.00;98150.38;4844414;29;19957;-71
2022/05/31 16:09:42;;;;;;;;;;;;;;;21.50;100.00;98138.03;4843725;29;19958;-70
2022/05/31 16:12:10;;;;;;;;;;;;;;;21.53;100.00;98145.63;4851255;29;19966;-70
2022/05/31 16:14:40;;;;;;;;;;;;;;;21.53;100.00;98151.34;4847012;29;19984;-70
2022/05/31 16:17:07;;;;;;;;;;;;;;;21.52;100.00;98148.94;4847369;29;19950;-70
2022/05/31 16:19:34;;;;;;;;;;;;;;;21.51;100.00;98142.47;4846993;29;19956;-70
2022/05/31 16:22:02;;;;;;;;;;;;;;;21.57;100.00;98146.25;4847064;29;19952;-70
2022/05/31 16:24:30;;;;;;;;;;;;;;;21.55;100.00;98148.78;4845582;29;19953;-71
2022/05/31 16:26:57;;;;;;;;;;;;;;;21.55;100.00;98142.31;4847289;29;19961;-70
2022/05/31 16:29:25;;;;;;;;;;;;;;;21.55;100.00;98131.72;4847399;29;19959;-70
2022/05/31 16:31:52;;;;;;;;;;;;;;;21.64;100.00;98141.53;4847085;29;20285;-71
2022/05/31 16:34:24;;;;;;;;;;;;;;;21.63;100.00;98132.19;4848323;29;19980;-70
2022/05/31 16:36:53;;;;;;;;;;;;;;;21.57;100.00;98134.88;4845963;29;19952;-70
2022/05/31 16:42:11;;;;;;;;;;;;;;;21.55;100.00;98136.63;4846626;29;19952;-71
2022/05/31 16:44:38;;;;;;;;;;;;;;;21.54;100.00;98124.44;4845647;29;19952;-70
2022/05/31 16:47:05;;;;;;;;;;;;;;;21.52;100.00;98123.34;4845518;29;19954;-70
2022/05/31 16:49:33;;;;;;;;;;;;;;;21.45;100.00;98138.69;4846501;29;19951;-71
2022/05/31 16:52:00;;;;;;;;;;;;;;;21.40;100.00;98142.16;4846790;29;19979;-70
2022/05/31 16:54:29;;;;;;;;;;;;;;;21.36;100.00;98140.75;4847202;29;19946;-70
2022/05/31 16:57:04;;;;;;;;;;;;;;;21.35;100.00;98142.78;4846676;29;19950;-70
2022/05/31 16:59:34;;;;;;;;;;;;;;;21.33;100.00;98138.84;4846778;29;19957;-70
2022/05/31 17:02:01;;;;;;;;;;;;;;;21.32;100.00;98138.03;4844392;29;20340;-70
2022/05/31 17:04:30;;;;;;;;;;;;;;;21.31;100.00;98133.63;4845865;29;19956;-71
2022/05/31 17:15:19;;;;;;;;;;;;;;;21.33;100.00;98148.16;4846279;29;19980;-70
2022/05/31 17:17:46;;;;;;;;;;;;;;;21.36;100.00;98158.59;4846498;29;19957;-70
2022/05/31 17:20:17;;;;;;;;;;;;;;;21.31;100.00;98144.22;4843954;29;20408;-71
2022/05/31 17:23:04;;;;;;;;;;;;;;;21.24;100.00;98148.16;4845999;29;19957;-71
2022/05/31 17:25:37;;;;;;;;;;;;;;;21.21;100.00;98157.63;4846791;29;19957;-70
2022/05/31 17:28:05;;;;;;;;;;;;;;;21.18;100.00;98163.47;4845717;29;20019;-70
2022/05/31 17:30:32;;;;;;;;;;;;;;;21.12;100.00;98154.78;4845394;29;19974;-70
2022/05/31 17:33:03;;;;;;;;;;;;;;;21.05;100.00;98154.28;4846257;29;19981;-70
2022/05/31 17:35:31;;;;;;;;;;;;;;;21.01;100.00;98165.78;4863577;29;19948;-70
2022/05/31 17:37:58;;;;;;;;;;;;;;;21.01;100.00;98165.00;4864942;29;20342;-70
2022/05/31 17:40:25;;;;;;;;;;;;;;;20.98;100.00;98172.41;4863679;29;20366;-71
2022/05/31 17:42:53;;;;;;;;;;;;;;;20.94;100.00;98160.41;4864733;29;19948;-71
2022/05/31 17:45:20;;;;;;;;;;;;;;;20.91;100.00;98164.97;4864314;29;19952;-70
2022/05/31 17:47:47;;;;;;;;;;;;;;;20.88;100.00;98156.63;4864980;29;19950;-70
2022/05/31 17:50:14;;;;;;;;;;;;;;;20.85;100.00;98163.25;4864493;29;19955;-70
2022/05/31 17:52:42;;;;;;;;;;;;;;;20.82;100.00;98161.34;4864983;29;19963;-70
2022/05/31 17:55:10;;;;;;;;;;;;;;;20.79;100.00;98159.41;4864578;29;19951;-70
2022/05/31 17:57:37;;;;;;;;;;;;;;;20.77;100.00;98161.94;4864688;29;19959;-71
2022/05/31 18:00:05;;;;;;;;;;;;;;;20.74;100.00;98151.50;4864523;29;20260;-71
2022/05/31 18:02:35;;;;;;;;;;;;;;;20.70;100.00;98159.41;4863146;29;20360;-70
2022/05/31 18:05:02;;;;;;;;;;;;;;;20.68;100.00;98161.94;4847765;29;19951;-70
2022/05/31 18:07:30;;;;;;;;;;;;;;;20.64;100.00;98164.13;4864401;29;19951;-70
2022/05/31 18:09:57;;;;;;;;;;;;;;;20.59;100.00;98164.75;4864645;29;20247;-70
2022/05/31 18:12:25;;;;;;;;;;;;;;;20.53;100.00;98163.75;4863658;29;19975;-71
2022/05/31 18:14:52;;;;;;;;;;;;;;;20.46;100.00;98166.91;4863034;29;19955;-70
2022/05/31 18:17:21;;;;;;;;;;;;;;;20.39;100.00;98172.88;4863948;29;19948;-70
2022/05/31 18:19:48;;;;;;;;;;;;;;;20.27;100.00;98166.03;4864310;29;19955;-70
2022/05/31 18:22:19;;;;;;;;;;;;;;;20.18;100.00;98155.38;4864094;29;19951;-70
2022/05/31 18:24:47;;;;;;;;;;;;;;;20.09;100.00;98169.53;4863729;29;19955;-70
2022/05/31 18:27:16;;;;;;;;;;;;;;;20.01;100.00;98170.25;4864471;29;19950;-70